createdAt,value
2023-05-03T00:01:15.003Z,2.35
2023-05-03T00:03:42.294Z,2.40
2023-05-03T00:06:14.455Z,1.92
2023-05-03T00:08:43.329Z,1.60
2023-05-03T00:11:10.704Z,1.83
2023-05-03T00:13:38.082Z,1.52
2023-05-03T00:16:05.789Z,2.03
2023-05-03T00:18:32.981Z,1.83
2023-05-03T00:21:00.654Z,1.85
2023-05-03T00:23:28.458Z,1.30
2023-05-03T00:25:57.137Z,1.42
2023-05-03T00:28:25.545Z,1.73
2023-05-03T00:30:53.927Z,1.35
2023-05-03T00:33:21.924Z,1.30
2023-05-03T00:35:49.867Z,1.48
2023-05-03T00:38:17.215Z,1.50
2023-05-03T00:40:44.487Z,1.55
2023-05-03T00:43:13.441Z,1.50
2023-05-03T00:45:40.826Z,1.73
2023-05-03T00:48:08.112Z,1.45
2023-05-03T00:50:37.328Z,1.27
2023-05-03T00:53:05.031Z,2.20
2023-05-03T00:55:33.611Z,1.27
2023-05-03T00:58:00.867Z,1.38
2023-05-03T01:00:28.633Z,1.40
2023-05-03T01:02:56.853Z,1.70
2023-05-03T01:05:25.265Z,1.73
2023-05-03T01:08:01.694Z,1.38
2023-05-03T01:10:41.423Z,1.30
2023-05-03T01:13:24.779Z,1.40
2023-05-03T01:16:06.010Z,1.40
2023-05-03T01:18:40.223Z,1.42
2023-05-03T01:21:10.388Z,1.60
2023-05-03T01:23:46.380Z,1.40
2023-05-03T01:26:27.584Z,1.85
2023-05-03T01:28:56.011Z,1.63
2023-05-03T01:31:24.347Z,2.08
2023-05-03T01:34:17.006Z,1.52
2023-05-03T01:36:46.012Z,1.90
2023-05-03T01:39:20.054Z,1.40
2023-05-03T01:41:50.857Z,1.83
2023-05-03T01:44:21.747Z,1.77
2023-05-03T01:46:49.910Z,1.80
2023-05-03T01:49:17.638Z,1.60
2023-05-03T01:51:45.017Z,1.50
2023-05-03T01:54:13.401Z,1.40
2023-05-03T01:56:41.343Z,1.10
2023-05-03T01:59:09.086Z,1.30
2023-05-03T02:01:36.509Z,2.50
2023-05-03T02:04:03.971Z,1.52
2023-05-03T02:06:31.898Z,1.30
2023-05-03T02:09:00.841Z,1.23
2023-05-03T02:11:28.415Z,1.00
2023-05-03T02:14:15.846Z,1.50
2023-05-03T02:16:43.452Z,1.13
2023-05-03T02:19:11.222Z,1.33
2023-05-03T02:21:38.567Z,1.50
2023-05-03T02:24:06.341Z,1.35
2023-05-03T02:26:33.768Z,1.45
2023-05-03T02:29:01.787Z,1.13
2023-05-03T02:31:32.048Z,1.45
2023-05-03T02:37:17.107Z,1.45
2023-05-03T02:39:45.940Z,1.00
2023-05-03T02:42:16.658Z,2.03
2023-05-03T02:44:46.593Z,1.73
2023-05-03T02:47:13.957Z,1.48
2023-05-03T02:49:43.116Z,1.50
2023-05-03T02:52:11.000Z,1.52
2023-05-03T02:54:38.603Z,1.00
2023-05-03T02:57:12.410Z,1.63
2023-05-03T02:59:40.108Z,1.25
2023-05-03T03:02:09.283Z,1.30
2023-05-03T03:04:38.097Z,1.15
2023-05-03T03:07:06.177Z,1.33
2023-05-03T03:09:33.749Z,1.70
2023-05-03T03:12:03.547Z,1.27
2023-05-03T03:14:30.934Z,1.42
2023-05-03T03:16:58.335Z,1.38
2023-05-03T03:19:25.681Z,1.40
2023-05-03T03:21:52.815Z,1.50
2023-05-03T03:24:20.024Z,1.35
2023-05-03T03:26:47.862Z,1.70
2023-05-03T03:29:15.321Z,1.60
2023-05-03T03:31:45.084Z,1.63
2023-05-03T03:34:13.937Z,1.55
2023-05-03T03:36:41.604Z,1.55
2023-05-03T03:39:08.901Z,1.80
2023-05-03T03:41:37.590Z,1.23
2023-05-03T03:44:05.658Z,1.50
2023-05-03T03:46:33.016Z,1.80
2023-05-03T03:49:02.840Z,1.77
2023-05-03T03:51:31.545Z,1.52
2023-05-03T03:54:00.234Z,1.45
2023-05-03T03:56:33.022Z,1.33
2023-05-03T03:59:00.929Z,1.80
2023-05-03T04:01:28.192Z,1.10
2023-05-03T04:03:56.637Z,1.48
2023-05-03T04:06:24.186Z,1.70
2023-05-03T04:08:52.196Z,1.60
2023-05-03T04:11:21.457Z,1.30
2023-05-03T04:13:54.514Z,1.80
2023-05-03T04:16:22.746Z,2.03
2023-05-03T04:18:50.614Z,1.50
2023-05-03T04:21:18.644Z,1.80
2023-05-03T04:23:47.178Z,1.60
2023-05-03T04:26:30.147Z,1.48
2023-05-03T04:29:02.778Z,1.33
2023-05-03T04:31:30.957Z,1.58
2023-05-03T04:33:58.817Z,1.77
2023-05-03T04:36:29.969Z,1.58
2023-05-03T04:38:59.257Z,1.50
2023-05-03T04:41:27.048Z,1.60
2023-05-03T04:43:55.144Z,1.80
2023-05-03T04:46:22.583Z,1.85
2023-05-03T04:48:51.685Z,1.92
2023-05-03T04:51:19.181Z,1.92
2023-05-03T04:53:48.067Z,1.88
2023-05-03T04:56:20.621Z,1.85
2023-05-03T04:58:47.891Z,1.95
2023-05-03T05:01:17.005Z,1.60
2023-05-03T05:03:44.745Z,1.73
2023-05-03T05:06:20.478Z,1.73
2023-05-03T05:08:48.895Z,1.80
2023-05-03T05:11:16.188Z,1.80
2023-05-03T05:13:43.511Z,1.65
2023-05-03T05:16:11.132Z,1.77
2023-05-03T05:18:42.387Z,1.65
2023-05-03T05:21:11.774Z,1.20
2023-05-03T05:23:39.376Z,2.05
2023-05-03T05:26:06.874Z,1.85
2023-05-03T05:28:34.261Z,2.22
2023-05-03T05:31:03.403Z,2.22
2023-05-03T05:33:31.842Z,2.22
2023-05-03T05:36:00.194Z,2.13
2023-05-03T05:38:27.952Z,2.75
2023-05-03T05:40:57.912Z,2.65
2023-05-03T05:43:25.749Z,2.90
2023-05-03T05:45:53.023Z,3.30
2023-05-03T05:48:21.176Z,3.83
2023-05-03T05:50:49.241Z,3.63
2023-05-03T05:53:17.549Z,3.90
2023-05-03T05:55:52.078Z,3.97
2023-05-03T05:58:19.620Z,4.55
2023-05-03T06:00:51.400Z,4.68
2023-05-03T06:03:19.455Z,4.40
2023-05-03T06:05:49.465Z,4.15
2023-05-03T06:08:16.859Z,5.32
2023-05-03T06:10:47.586Z,5.25
2023-05-03T06:13:14.998Z,5.30
2023-05-03T06:15:43.346Z,6.00
2023-05-03T06:18:10.783Z,6.03
2023-05-03T06:20:38.347Z,6.32
2023-05-03T06:23:06.168Z,6.55
2023-05-03T06:25:33.699Z,7.07
2023-05-03T06:28:01.219Z,6.85
2023-05-03T06:30:32.990Z,7.20
2023-05-03T06:33:10.650Z,5.97
2023-05-03T06:35:38.218Z,5.60
2023-05-03T06:38:05.524Z,4.07
2023-05-03T06:40:33.584Z,4.10
2023-05-03T06:43:01.093Z,4.07
2023-05-03T06:45:39.946Z,4.05
2023-05-03T06:48:07.638Z,2.75
2023-05-03T06:50:35.167Z,2.75
2023-05-03T06:53:03.064Z,2.63
2023-05-03T06:55:30.379Z,2.17
2023-05-03T06:57:58.132Z,2.63
2023-05-03T07:00:26.101Z,2.60
2023-05-03T07:02:53.701Z,2.15
2023-05-03T07:05:21.212Z,2.28
2023-05-03T07:07:48.523Z,2.28
2023-05-03T07:10:15.833Z,2.60
2023-05-03T07:12:43.181Z,2.28
2023-05-03T07:15:10.657Z,1.95
2023-05-03T07:17:37.961Z,2.15
2023-05-03T07:20:06.057Z,2.45
2023-05-03T07:22:33.604Z,2.42
2023-05-03T07:25:01.102Z,2.38
2023-05-03T07:27:28.886Z,2.83
2023-05-03T07:29:56.239Z,2.70
2023-05-03T07:32:23.672Z,2.42
2023-05-03T07:34:51.174Z,2.08
2023-05-03T07:37:18.554Z,2.20
2023-05-03T07:39:51.747Z,2.63
2023-05-03T07:44:47.193Z,1.70
2023-05-03T07:47:14.384Z,2.60
2023-05-03T07:49:41.694Z,2.28
2023-05-03T07:52:11.476Z,2.17
2023-05-03T07:54:40.447Z,2.60
2023-05-03T07:57:07.884Z,2.20
2023-05-03T07:59:35.637Z,2.17
2023-05-03T08:02:03.237Z,1.90
2023-05-03T08:04:30.887Z,2.15
2023-05-03T08:07:04.518Z,2.28
2023-05-03T08:09:31.773Z,2.70
2023-05-03T08:11:59.082Z,2.35
2023-05-03T08:14:28.058Z,2.40
2023-05-03T08:16:55.547Z,2.45
2023-05-03T08:19:22.866Z,2.80
2023-05-03T08:21:50.206Z,2.30
2023-05-03T08:24:17.509Z,2.20
2023-05-03T08:26:45.640Z,2.40
2023-05-03T08:29:12.875Z,2.55
2023-05-03T08:31:41.401Z,3.17
2023-05-03T08:34:10.756Z,2.33
2023-05-03T08:36:41.639Z,2.78
2023-05-03T08:39:13.673Z,2.55
2023-05-03T08:41:42.548Z,2.25
2023-05-03T08:44:12.670Z,5.90
2023-05-03T08:46:43.113Z,2.42
2023-05-03T08:49:12.740Z,2.47
2023-05-03T08:51:47.411Z,2.58
2023-05-03T08:56:44.180Z,2.65
2023-05-03T08:59:11.804Z,2.88
2023-05-03T09:01:40.547Z,2.35
2023-05-03T09:04:09.890Z,2.28
2023-05-03T09:06:38.667Z,1.90
2023-05-03T09:09:09.029Z,1.92
2023-05-03T09:11:39.344Z,2.17
2023-05-03T09:14:11.214Z,2.25
2023-05-03T09:16:40.087Z,2.30
2023-05-03T09:19:11.697Z,1.90
2023-05-03T09:21:44.944Z,5.75
2023-05-03T09:24:20.061Z,3.38
2023-05-03T09:26:49.412Z,2.42
2023-05-03T09:29:36.827Z,2.90
2023-05-03T09:32:06.092Z,2.28
2023-05-03T09:34:34.791Z,2.53
2023-05-03T09:37:02.447Z,2.72
2023-05-03T09:39:30.131Z,2.10
2023-05-03T09:41:57.994Z,2.40
2023-05-03T09:44:54.459Z,2.35
2023-05-03T09:47:24.742Z,2.53
2023-05-03T09:49:52.114Z,2.35
2023-05-03T09:52:21.803Z,2.20
2023-05-03T09:54:49.940Z,2.50
2023-05-03T09:57:17.860Z,2.90
2023-05-03T09:59:46.088Z,2.38
2023-05-03T10:02:13.678Z,2.92
2023-05-03T10:04:52.184Z,3.00
2023-05-03T10:07:21.979Z,2.85
2023-05-03T10:09:49.446Z,2.65
2023-05-03T10:12:19.214Z,2.35
2023-05-03T10:14:48.328Z,2.67
2023-05-03T10:17:35.749Z,2.60
2023-05-03T10:20:28.529Z,2.55
2023-05-03T10:23:05.129Z,3.00
2023-05-03T10:25:34.685Z,2.90
2023-05-03T10:28:06.950Z,2.83
2023-05-03T10:30:41.142Z,2.83
2023-05-03T10:33:14.683Z,2.75
2023-05-03T10:35:53.099Z,3.70
2023-05-03T10:38:21.833Z,5.28
2023-05-03T10:40:49.249Z,3.40
2023-05-03T10:43:34.662Z,2.38
2023-05-03T10:46:06.626Z,3.13
2023-05-03T10:48:35.092Z,2.95
2023-05-03T10:51:39.808Z,3.17
2023-05-03T10:54:07.621Z,2.97
2023-05-03T10:56:50.019Z,2.90
2023-05-03T10:59:17.909Z,3.33
2023-05-03T11:01:47.132Z,2.78
2023-05-03T11:04:33.974Z,2.45
2023-05-03T11:07:01.804Z,2.60
2023-05-03T11:09:33.950Z,2.95
2023-05-03T11:12:05.976Z,6.15
2023-05-03T11:14:33.807Z,3.85
2023-05-03T11:17:02.046Z,3.50
2023-05-03T11:19:29.884Z,2.95
2023-05-03T11:21:59.145Z,3.67
2023-05-03T11:24:27.610Z,3.25
2023-05-03T11:26:54.823Z,2.60
2023-05-03T11:29:25.158Z,3.70
2023-05-03T11:31:52.956Z,3.35
2023-05-03T11:34:20.439Z,3.10
2023-05-03T11:36:49.451Z,2.90
2023-05-03T11:39:18.734Z,3.35
2023-05-03T11:42:02.797Z,3.00
2023-05-03T11:44:30.726Z,3.13
2023-05-03T11:46:58.842Z,2.90
2023-05-03T11:49:27.222Z,3.13
2023-05-03T11:51:55.258Z,3.22
2023-05-03T11:54:27.090Z,2.83
2023-05-03T11:57:00.266Z,3.38
2023-05-03T11:59:36.578Z,3.55
2023-05-03T12:02:06.292Z,3.40
2023-05-03T12:04:34.691Z,2.58
2023-05-03T12:07:05.896Z,3.00
2023-05-03T12:09:35.922Z,2.90
2023-05-03T12:12:06.126Z,2.13
2023-05-03T12:14:59.553Z,2.33
2023-05-03T12:17:43.944Z,2.92
2023-05-03T12:22:57.145Z,4.22
2023-05-03T12:25:29.086Z,3.25
2023-05-03T12:28:17.982Z,2.53
2023-05-03T12:30:47.115Z,2.47
2023-05-03T12:33:16.811Z,3.22
2023-05-03T12:35:47.928Z,3.05
2023-05-03T12:38:17.369Z,2.60
2023-05-03T12:40:47.325Z,2.67
2023-05-03T12:43:15.202Z,2.55
2023-05-03T12:45:46.858Z,2.78
2023-05-03T12:48:17.645Z,2.65
2023-05-03T12:50:45.898Z,2.63
2023-05-03T12:53:16.931Z,2.92
2023-05-03T12:55:48.025Z,3.22
2023-05-03T13:03:34.480Z,3.00
2023-05-03T13:06:13.394Z,3.17
2023-05-03T13:11:13.181Z,4.25
2023-05-03T13:13:40.629Z,3.50
2023-05-03T13:16:09.264Z,3.13
2023-05-03T13:18:37.253Z,2.40
2023-05-03T13:21:05.093Z,2.60
2023-05-03T13:23:34.065Z,3.30
2023-05-03T13:26:03.890Z,2.08
2023-05-03T13:28:32.732Z,2.88
2023-05-03T13:31:00.087Z,2.97
2023-05-03T13:33:28.772Z,2.63
2023-05-03T13:35:56.701Z,2.42
2023-05-03T13:38:24.153Z,2.85
2023-05-03T13:40:52.503Z,2.00
2023-05-03T13:43:19.733Z,2.35
2023-05-03T13:45:59.680Z,2.00
2023-05-03T13:48:27.020Z,2.47
2023-05-03T13:50:54.439Z,2.30
2023-05-03T13:53:21.755Z,2.42
2023-05-03T13:55:49.055Z,1.80
2023-05-03T13:58:16.620Z,2.05
2023-05-03T14:00:45.527Z,1.65
2023-05-03T14:03:13.139Z,2.47
2023-05-03T14:05:40.682Z,2.72
2023-05-03T14:08:08.095Z,2.67
2023-05-03T14:10:35.970Z,2.00
2023-05-03T14:13:03.716Z,2.10
2023-05-03T14:15:31.335Z,1.90
2023-05-03T14:18:01.243Z,2.05
2023-05-03T14:20:30.652Z,2.60
2023-05-03T14:22:58.251Z,2.40
2023-05-03T14:25:27.234Z,2.05
2023-05-03T14:27:55.021Z,2.00
2023-05-03T14:30:22.506Z,3.10
2023-05-03T14:32:50.316Z,2.35
2023-05-03T14:35:20.718Z,2.72
2023-05-03T14:37:48.172Z,2.97
2023-05-03T14:40:17.271Z,3.72
2023-05-03T14:42:44.614Z,2.13
2023-05-03T14:45:15.059Z,3.03
2023-05-03T14:47:42.868Z,2.60
2023-05-03T14:50:10.933Z,1.92
2023-05-03T14:52:38.675Z,2.83
2023-05-03T14:55:06.957Z,2.40
2023-05-03T14:57:34.370Z,2.35
2023-05-03T15:00:02.362Z,2.78
2023-05-03T15:02:33.098Z,2.20
2023-05-03T15:05:03.065Z,2.67
2023-05-03T15:07:31.969Z,2.60
2023-05-03T15:10:01.562Z,2.60
2023-05-03T15:12:32.892Z,1.90
2023-05-03T15:15:00.194Z,2.50
2023-05-03T15:17:27.988Z,2.42
2023-05-03T15:19:55.312Z,2.45
2023-05-03T15:22:22.595Z,2.30
2023-05-03T15:24:49.788Z,3.17
2023-05-03T15:27:17.381Z,2.35
2023-05-03T15:29:45.052Z,2.65
2023-05-03T15:32:14.877Z,2.17
2023-05-03T15:34:43.114Z,2.45
2023-05-03T15:37:12.452Z,2.53
2023-05-03T15:39:40.062Z,2.50
2023-05-03T15:42:07.565Z,2.88
2023-05-03T15:44:35.970Z,3.08
2023-05-03T15:47:04.269Z,3.17
2023-05-03T15:49:31.697Z,2.90
2023-05-03T15:51:58.905Z,3.42
2023-05-03T15:54:26.137Z,2.42
2023-05-03T15:56:53.887Z,2.70
2023-05-03T15:59:21.455Z,2.85
2023-05-03T16:01:49.496Z,2.25
2023-05-03T16:04:18.454Z,2.40
2023-05-03T16:06:46.033Z,2.50
2023-05-03T16:09:13.830Z,3.00
2023-05-03T16:11:41.189Z,2.92
2023-05-03T16:14:09.691Z,2.50
2023-05-03T16:16:38.964Z,2.47
2023-05-03T16:19:08.917Z,3.17
2023-05-03T16:21:36.189Z,2.80
2023-05-03T16:24:04.863Z,2.67
2023-05-03T16:26:34.527Z,2.83
2023-05-03T16:29:02.104Z,2.58
2023-05-03T16:31:30.580Z,2.42
2023-05-03T16:33:58.452Z,2.90
2023-05-03T16:36:25.774Z,2.58
2023-05-03T16:38:53.191Z,2.42
2023-05-03T16:41:21.078Z,2.67
2023-05-03T16:43:48.353Z,3.13
2023-05-03T16:46:15.746Z,3.20
2023-05-03T16:48:43.232Z,2.65
2023-05-03T16:51:10.423Z,2.85
2023-05-03T16:53:37.610Z,2.58
2023-05-03T16:56:05.016Z,2.65
2023-05-03T16:58:32.426Z,3.10
2023-05-03T17:00:59.696Z,2.80
2023-05-03T17:03:27.058Z,3.10
2023-05-03T17:05:54.342Z,3.05
2023-05-03T17:08:21.758Z,3.03
2023-05-03T17:10:49.029Z,2.88
2023-05-03T17:13:17.424Z,2.85
2023-05-03T17:15:45.374Z,2.38
2023-05-03T17:18:13.270Z,2.60
2023-05-03T17:20:40.598Z,2.70
2023-05-03T17:23:07.936Z,3.10
2023-05-03T17:25:35.732Z,3.40
2023-05-03T17:28:03.893Z,3.13
2023-05-03T17:30:31.360Z,3.78
2023-05-03T17:32:58.755Z,4.03
2023-05-03T17:35:29.350Z,3.50
2023-05-03T17:37:57.489Z,4.20
2023-05-03T17:40:25.524Z,4.38
2023-05-03T17:42:52.740Z,4.88
2023-05-03T17:45:20.255Z,4.15
2023-05-03T17:47:47.726Z,16.45
2023-05-03T17:50:15.066Z,8.68
2023-05-03T17:52:42.338Z,10.10
2023-05-03T17:55:10.843Z,10.20
2023-05-03T17:57:40.150Z,6.60
2023-05-03T18:00:11.306Z,5.50
2023-05-03T18:02:38.802Z,4.68
2023-05-03T18:05:07.118Z,6.00
2023-05-03T18:07:34.624Z,4.82
2023-05-03T18:10:02.776Z,4.28
2023-05-03T18:12:32.568Z,4.50
2023-05-03T18:15:00.425Z,4.45
2023-05-03T18:17:28.716Z,4.95
2023-05-03T18:19:56.489Z,5.25
2023-05-03T18:22:25.920Z,5.88
2023-05-03T18:24:55.604Z,5.88
2023-05-03T18:27:23.489Z,6.10
2023-05-03T18:29:51.180Z,4.90
2023-05-03T18:32:18.673Z,5.18
2023-05-03T18:34:46.097Z,6.00
2023-05-03T18:37:13.625Z,6.00
2023-05-03T18:39:40.996Z,7.13
2023-05-03T18:42:08.422Z,6.15
2023-05-03T18:44:36.347Z,6.80
2023-05-03T18:47:04.060Z,6.90
2023-05-03T18:49:31.461Z,7.05
2023-05-03T18:51:59.226Z,6.70
2023-05-03T18:54:26.644Z,6.90
2023-05-03T18:56:54.327Z,18.40
2023-05-03T18:59:21.815Z,10.93
2023-05-03T19:01:50.242Z,9.07
2023-05-03T19:04:17.926Z,6.65
2023-05-03T19:06:45.700Z,6.45
2023-05-03T19:09:13.795Z,6.30
2023-05-03T19:11:43.041Z,6.80
2023-05-03T19:14:10.462Z,6.82
2023-05-03T19:16:37.741Z,6.90
2023-05-03T19:19:05.026Z,7.07
2023-05-03T19:21:33.098Z,6.20
2023-05-03T19:24:00.798Z,5.90
2023-05-03T19:26:28.095Z,5.93
2023-05-03T19:28:55.652Z,6.53
2023-05-03T19:31:22.929Z,6.85
2023-05-03T19:33:50.271Z,6.50
2023-05-03T19:36:17.729Z,7.78
2023-05-03T19:38:45.037Z,13.15
2023-05-03T19:41:12.731Z,10.30
2023-05-03T19:43:41.423Z,7.85
2023-05-03T19:46:09.065Z,7.85
2023-05-03T19:48:36.975Z,7.47
2023-05-03T19:51:07.393Z,6.85
2023-05-03T19:53:34.960Z,6.82
2023-05-03T19:56:03.331Z,6.88
2023-05-03T19:58:32.266Z,7.10
2023-05-03T20:00:59.796Z,7.07
2023-05-03T20:03:27.732Z,6.75
2023-05-03T20:05:55.448Z,7.65
2023-05-03T20:08:24.209Z,8.18
2023-05-03T20:10:51.787Z,7.47
2023-05-03T20:13:19.499Z,7.65
2023-05-03T20:15:47.415Z,8.10
2023-05-03T20:18:14.793Z,7.80
2023-05-03T20:20:42.037Z,6.50
2023-05-03T20:23:09.333Z,6.40
2023-05-03T20:25:36.687Z,7.03
2023-05-03T20:28:04.617Z,6.90
2023-05-03T20:30:32.308Z,7.28
2023-05-03T20:32:59.703Z,6.78
2023-05-03T20:35:27.066Z,7.20
2023-05-03T20:37:54.432Z,7.25
2023-05-03T20:40:23.936Z,6.20
2023-05-03T20:42:52.750Z,5.65
2023-05-03T20:45:20.393Z,6.20
2023-05-03T20:47:47.843Z,5.82
2023-05-03T20:50:15.125Z,25.05
2023-05-03T20:52:42.408Z,12.60
2023-05-03T20:55:09.823Z,5.78
2023-05-03T20:57:41.946Z,5.65
2023-05-03T21:00:15.907Z,5.88
2023-05-03T21:02:50.092Z,5.93
2023-05-03T21:05:17.683Z,5.30
2023-05-03T21:07:44.972Z,5.97
2023-05-03T21:10:12.891Z,5.70
2023-05-03T21:12:41.117Z,5.93
2023-05-03T21:15:09.108Z,5.32
2023-05-03T21:17:36.422Z,6.43
2023-05-03T21:20:04.270Z,5.65
2023-05-03T21:22:32.215Z,5.90
2023-05-03T21:25:02.548Z,5.93
2023-05-03T21:27:31.201Z,5.70
2023-05-03T21:29:58.449Z,5.78
2023-05-03T21:32:25.823Z,5.55
2023-05-03T21:34:53.933Z,5.32
2023-05-03T21:37:21.355Z,5.80
2023-05-03T21:40:00.396Z,5.50
2023-05-03T21:42:31.774Z,5.38
2023-05-03T21:44:59.156Z,5.30
2023-05-03T21:47:27.931Z,5.22
2023-05-03T21:50:03.821Z,4.78
2023-05-03T21:52:33.693Z,4.55
2023-05-03T21:55:01.086Z,4.57
2023-05-03T21:57:33.138Z,4.60
2023-05-03T22:00:00.498Z,4.95
2023-05-03T22:02:27.935Z,4.43
2023-05-03T22:04:55.255Z,4.50
2023-05-03T22:07:22.556Z,4.07
2023-05-03T22:09:49.743Z,3.97
2023-05-03T22:12:24.307Z,4.22
2023-05-03T22:14:52.941Z,3.83
2023-05-03T22:17:21.169Z,4.88
2023-05-03T22:19:48.800Z,4.55
2023-05-03T22:22:16.029Z,4.13
2023-05-03T22:24:43.626Z,4.40
2023-05-03T22:27:10.897Z,4.15
2023-05-03T22:29:38.566Z,4.00
2023-05-03T22:32:07.068Z,5.13
2023-05-03T22:34:34.341Z,4.55
2023-05-03T22:37:02.032Z,4.47
2023-05-03T22:39:29.218Z,4.82
2023-05-03T22:41:56.432Z,5.57
2023-05-03T22:44:23.733Z,5.90
2023-05-03T22:46:50.965Z,5.78
2023-05-03T22:49:18.896Z,5.95
2023-05-03T22:51:47.035Z,5.68
2023-05-03T22:54:15.620Z,5.07
2023-05-03T22:56:42.894Z,6.13
2023-05-03T22:59:11.499Z,9.57
2023-05-03T23:01:39.237Z,9.55
2023-05-03T23:04:07.948Z,5.80
2023-05-03T23:06:36.394Z,5.72
2023-05-03T23:09:04.582Z,5.75
2023-05-03T23:11:32.148Z,5.65
2023-05-03T23:13:59.456Z,6.00
2023-05-03T23:16:26.766Z,6.63
2023-05-03T23:18:55.722Z,9.85
2023-05-03T23:21:23.562Z,22.17
2023-05-03T23:23:50.745Z,11.98
2023-05-03T23:26:17.880Z,5.93
2023-05-03T23:28:46.306Z,5.80
2023-05-03T23:31:14.406Z,5.70
2023-05-03T23:33:42.381Z,6.43
2023-05-03T23:36:09.692Z,5.90
2023-05-03T23:38:36.985Z,5.28
2023-05-03T23:41:04.349Z,5.47
2023-05-03T23:43:31.939Z,6.15
2023-05-03T23:45:59.119Z,5.28
2023-05-03T23:48:26.508Z,5.80
2023-05-03T23:50:53.875Z,5.03
2023-05-03T23:53:21.105Z,5.22
2023-05-03T23:55:49.498Z,4.85
2023-05-03T23:58:18.177Z,4.30
